sensor_id;sensor_type;location;lat;lon;timestamp;P1;durP1;ratioP1;P2;durP2;ratioP2
1885;SDS011;943;51.568;6.998;2023-07-08T00:01:19;3.50;;;2.73;;
1885;SDS011;943;51.568;6.998;2023-07-08T00:03:48;3.70;;;2.63;;
1885;SDS011;943;51.568;6.998;2023-07-08T00:06:25;7.47;;;2.77;;
1885;SDS011;943;51.568;6.998;2023-07-08T00:08:57;5.20;;;3.40;;
1885;SDS011;943;51.568;6.998;2023-07-08T00:11:25;6.10;;;2.73;;
1885;SDS011;943;51.568;6.998;2023-07-08T00:13:56;4.20;;;2.80;;
1885;SDS011;943;51.568;6.998;2023-07-08T00:16:24;6.80;;;3.47;;
1885;SDS011;943;51.568;6.998;2023-07-08T00:18:54;6.23;;;3.03;;
1885;SDS011;943;51.568;6.998;2023-07-08T00:21:22;5.60;;;3.20;;
1885;SDS011;943;51.568;6.998;2023-07-08T00:23:50;7.53;;;2.97;;
1885;SDS011;943;51.568;6.998;2023-07-08T00:26:22;6.23;;;2.90;;
1885;SDS011;943;51.568;6.998;2023-07-08T00:28:58;4.80;;;3.07;;
1885;SDS011;943;51.568;6.998;2023-07-08T00:31:26;4.73;;;2.70;;
1885;SDS011;943;51.568;6.998;2023-07-08T00:33:58;9.00;;;2.97;;
1885;SDS011;943;51.568;6.998;2023-07-08T00:36:29;7.33;;;3.10;;
1885;SDS011;943;51.568;6.998;2023-07-08T00:38:58;4.93;;;2.87;;
1885;SDS011;943;51.568;6.998;2023-07-08T00:41:30;7.23;;;3.10;;
1885;SDS011;943;51.568;6.998;2023-07-08T00:44:08;3.97;;;3.10;;
1885;SDS011;943;51.568;6.998;2023-07-08T00:50:02;5.67;;;3.17;;
1885;SDS011;943;51.568;6.998;2023-07-08T00:52:33;7.17;;;2.70;;
1885;SDS011;943;51.568;6.998;2023-07-08T00:55:03;4.10;;;3.00;;
1885;SDS011;943;51.568;6.998;2023-07-08T00:57:37;4.80;;;3.20;;
1885;SDS011;943;51.568;6.998;2023-07-08T01:00:13;3.77;;;3.00;;
1885;SDS011;943;51.568;6.998;2023-07-08T01:02:46;4.83;;;2.30;;
1885;SDS011;943;51.568;6.998;2023-07-08T01:05:24;4.33;;;3.27;;
1885;SDS011;943;51.568;6.998;2023-07-08T01:07:58;3.80;;;2.60;;
1885;SDS011;943;51.568;6.998;2023-07-08T01:10:33;3.40;;;2.50;;
1885;SDS011;943;51.568;6.998;2023-07-08T01:13:19;4.63;;;3.43;;
1885;SDS011;943;51.568;6.998;2023-07-08T01:15:49;4.60;;;3.30;;
1885;SDS011;943;51.568;6.998;2023-07-08T01:18:18;7.27;;;3.10;;
1885;SDS011;943;51.568;6.998;2023-07-08T01:20:48;4.90;;;3.00;;
1885;SDS011;943;51.568;6.998;2023-07-08T01:23:17;4.50;;;2.90;;
1885;SDS011;943;51.568;6.998;2023-07-08T01:25:45;3.70;;;2.60;;
1885;SDS011;943;51.568;6.998;2023-07-08T01:28:14;4.83;;;2.93;;
1885;SDS011;943;51.568;6.998;2023-07-08T01:30:43;8.30;;;3.33;;
1885;SDS011;943;51.568;6.998;2023-07-08T01:33:16;4.90;;;2.70;;
1885;SDS011;943;51.568;6.998;2023-07-08T01:35:51;4.57;;;3.27;;
1885;SDS011;943;51.568;6.998;2023-07-08T01:38:21;4.30;;;2.97;;
1885;SDS011;943;51.568;6.998;2023-07-08T01:40:56;4.17;;;2.63;;
1885;SDS011;943;51.568;6.998;2023-07-08T01:43:25;3.73;;;2.87;;
1885;SDS011;943;51.568;6.998;2023-07-08T01:45:53;6.03;;;2.73;;
1885;SDS011;943;51.568;6.998;2023-07-08T01:48:25;3.90;;;2.43;;
1885;SDS011;943;51.568;6.998;2023-07-08T01:51:12;5.20;;;2.80;;
1885;SDS011;943;51.568;6.998;2023-07-08T01:53:41;3.70;;;2.80;;
1885;SDS011;943;51.568;6.998;2023-07-08T01:56:12;5.40;;;3.40;;
1885;SDS011;943;51.568;6.998;2023-07-08T01:58:41;4.60;;;2.80;;
1885;SDS011;943;51.568;6.998;2023-07-08T02:01:10;4.63;;;2.80;;
1885;SDS011;943;51.568;6.998;2023-07-08T02:03:38;4.30;;;2.63;;
1885;SDS011;943;51.568;6.998;2023-07-08T02:06:10;6.83;;;3.23;;
1885;SDS011;943;51.568;6.998;2023-07-08T02:08:39;3.60;;;2.37;;
1885;SDS011;943;51.568;6.998;2023-07-08T02:11:06;6.17;;;2.97;;
1885;SDS011;943;51.568;6.998;2023-07-08T02:13:35;4.40;;;2.90;;
1885;SDS011;943;51.568;6.998;2023-07-08T02:16:03;4.00;;;3.03;;
1885;SDS011;943;51.568;6.998;2023-07-08T02:18:34;5.53;;;3.47;;
1885;SDS011;943;51.568;6.998;2023-07-08T02:21:02;4.60;;;3.20;;
1885;SDS011;943;51.568;6.998;2023-07-08T02:23:30;5.93;;;3.47;;
1885;SDS011;943;51.568;6.998;2023-07-08T02:25:58;5.90;;;3.10;;
1885;SDS011;943;51.568;6.998;2023-07-08T02:28:26;6.37;;;3.60;;
1885;SDS011;943;51.568;6.998;2023-07-08T02:30:54;5.13;;;3.43;;
1885;SDS011;943;51.568;6.998;2023-07-08T02:33:22;4.43;;;2.53;;
1885;SDS011;943;51.568;6.998;2023-07-08T02:35:54;6.00;;;3.13;;
1885;SDS011;943;51.568;6.998;2023-07-08T02:38:22;5.50;;;3.43;;
1885;SDS011;943;51.568;6.998;2023-07-08T02:40:49;4.50;;;3.20;;
1885;SDS011;943;51.568;6.998;2023-07-08T02:43:17;5.93;;;3.27;;
1885;SDS011;943;51.568;6.998;2023-07-08T02:45:48;4.87;;;2.77;;
1885;SDS011;943;51.568;6.998;2023-07-08T02:48:18;5.50;;;3.20;;
1885;SDS011;943;51.568;6.998;2023-07-08T02:50:47;4.20;;;3.30;;
1885;SDS011;943;51.568;6.998;2023-07-08T02:53:15;4.40;;;2.70;;
1885;SDS011;943;51.568;6.998;2023-07-08T02:55:43;3.70;;;2.70;;
1885;SDS011;943;51.568;6.998;2023-07-08T02:58:11;4.97;;;3.47;;
1885;SDS011;943;51.568;6.998;2023-07-08T03:00:39;7.00;;;3.70;;
1885;SDS011;943;51.568;6.998;2023-07-08T03:03:06;4.73;;;2.87;;
1885;SDS011;943;51.568;6.998;2023-07-08T03:05:34;6.67;;;4.23;;
1885;SDS011;943;51.568;6.998;2023-07-08T03:08:02;8.00;;;3.30;;
1885;SDS011;943;51.568;6.998;2023-07-08T03:10:31;5.03;;;3.50;;
1885;SDS011;943;51.568;6.998;2023-07-08T03:12:59;5.03;;;3.13;;
1885;SDS011;943;51.568;6.998;2023-07-08T03:15:26;4.63;;;2.87;;
1885;SDS011;943;51.568;6.998;2023-07-08T03:17:54;4.10;;;3.13;;
1885;SDS011;943;51.568;6.998;2023-07-08T03:20:24;4.37;;;3.20;;
1885;SDS011;943;51.568;6.998;2023-07-08T03:22:52;6.40;;;4.40;;
1885;SDS011;943;51.568;6.998;2023-07-08T03:25:20;5.40;;;3.47;;
1885;SDS011;943;51.568;6.998;2023-07-08T03:27:50;6.60;;;3.87;;
1885;SDS011;943;51.568;6.998;2023-07-08T03:30:22;5.50;;;2.87;;
1885;SDS011;943;51.568;6.998;2023-07-08T03:32:56;3.60;;;2.90;;
1885;SDS011;943;51.568;6.998;2023-07-08T03:35:25;4.33;;;3.17;;
1885;SDS011;943;51.568;6.998;2023-07-08T03:37:54;5.33;;;3.30;;
1885;SDS011;943;51.568;6.998;2023-07-08T03:40:22;8.53;;;3.93;;
1885;SDS011;943;51.568;6.998;2023-07-08T03:42:51;4.53;;;3.23;;
1885;SDS011;943;51.568;6.998;2023-07-08T03:45:19;5.27;;;3.37;;
1885;SDS011;943;51.568;6.998;2023-07-08T03:47:47;3.60;;;2.90;;
1885;SDS011;943;51.568;6.998;2023-07-08T03:50:20;4.70;;;3.50;;
1885;SDS011;943;51.568;6.998;2023-07-08T03:52:53;5.97;;;4.07;;
1885;SDS011;943;51.568;6.998;2023-07-08T03:55:27;9.13;;;2.97;;
1885;SDS011;943;51.568;6.998;2023-07-08T03:57:57;8.20;;;3.80;;
1885;SDS011;943;51.568;6.998;2023-07-08T04:00:28;5.70;;;3.53;;
1885;SDS011;943;51.568;6.998;2023-07-08T04:02:58;4.83;;;3.87;;
1885;SDS011;943;51.568;6.998;2023-07-08T04:05:26;4.93;;;3.40;;
1885;SDS011;943;51.568;6.998;2023-07-08T04:07:55;6.17;;;3.63;;
1885;SDS011;943;51.568;6.998;2023-07-08T04:10:23;4.43;;;3.13;;
1885;SDS011;943;51.568;6.998;2023-07-08T04:12:51;6.43;;;3.43;;
1885;SDS011;943;51.568;6.998;2023-07-08T04:15:19;4.70;;;3.50;;
1885;SDS011;943;51.568;6.998;2023-07-08T04:17:52;9.03;;;3.53;;
1885;SDS011;943;51.568;6.998;2023-07-08T04:20:22;5.23;;;2.83;;
1885;SDS011;943;51.568;6.998;2023-07-08T04:22:51;5.83;;;3.43;;
1885;SDS011;943;51.568;6.998;2023-07-08T04:25:19;6.77;;;3.63;;
1885;SDS011;943;51.568;6.998;2023-07-08T04:27:49;4.60;;;3.47;;
1885;SDS011;943;51.568;6.998;2023-07-08T04:30:23;7.50;;;3.20;;
1885;SDS011;943;51.568;6.998;2023-07-08T04:32:53;4.77;;;3.30;;
1885;SDS011;943;51.568;6.998;2023-07-08T04:35:22;6.20;;;2.80;;
1885;SDS011;943;51.568;6.998;2023-07-08T04:37:50;5.30;;;3.33;;
1885;SDS011;943;51.568;6.998;2023-07-08T04:40:19;6.87;;;3.47;;
1885;SDS011;943;51.568;6.998;2023-07-08T04:42:48;5.43;;;3.00;;
1885;SDS011;943;51.568;6.998;2023-07-08T04:45:18;7.20;;;3.40;;
1885;SDS011;943;51.568;6.998;2023-07-08T04:47:48;4.30;;;3.07;;
1885;SDS011;943;51.568;6.998;2023-07-08T04:50:20;6.47;;;3.30;;
1885;SDS011;943;51.568;6.998;2023-07-08T04:52:48;5.17;;;3.03;;
1885;SDS011;943;51.568;6.998;2023-07-08T04:55:17;4.97;;;3.60;;
1885;SDS011;943;51.568;6.998;2023-07-08T04:57:45;5.47;;;3.23;;
1885;SDS011;943;51.568;6.998;2023-07-08T05:00:15;4.67;;;3.10;;
1885;SDS011;943;51.568;6.998;2023-07-08T05:02:46;6.30;;;3.30;;
1885;SDS011;943;51.568;6.998;2023-07-08T05:05:14;3.77;;;2.63;;
1885;SDS011;943;51.568;6.998;2023-07-08T05:07:43;4.70;;;3.00;;
1885;SDS011;943;51.568;6.998;2023-07-08T05:10:13;6.37;;;3.30;;
1885;SDS011;943;51.568;6.998;2023-07-08T05:12:42;4.63;;;2.97;;
1885;SDS011;943;51.568;6.998;2023-07-08T05:15:13;8.50;;;4.20;;
1885;SDS011;943;51.568;6.998;2023-07-08T05:17:43;5.10;;;3.33;;
1885;SDS011;943;51.568;6.998;2023-07-08T05:20:13;4.73;;;3.13;;
1885;SDS011;943;51.568;6.998;2023-07-08T05:22:42;6.20;;;3.43;;
1885;SDS011;943;51.568;6.998;2023-07-08T05:25:10;4.70;;;3.57;;
1885;SDS011;943;51.568;6.998;2023-07-08T05:27:41;4.93;;;3.07;;
1885;SDS011;943;51.568;6.998;2023-07-08T05:30:10;5.40;;;3.10;;
1885;SDS011;943;51.568;6.998;2023-07-08T05:32:45;4.30;;;3.30;;
1885;SDS011;943;51.568;6.998;2023-07-08T05:35:13;6.33;;;3.50;;
1885;SDS011;943;51.568;6.998;2023-07-08T05:37:42;5.50;;;3.43;;
1885;SDS011;943;51.568;6.998;2023-07-08T05:40:14;5.47;;;3.40;;
1885;SDS011;943;51.568;6.998;2023-07-08T05:42:43;4.53;;;3.07;;
1885;SDS011;943;51.568;6.998;2023-07-08T05:45:12;4.77;;;3.57;;
1885;SDS011;943;51.568;6.998;2023-07-08T05:47:40;4.93;;;3.33;;
1885;SDS011;943;51.568;6.998;2023-07-08T05:50:08;7.70;;;3.60;;
1885;SDS011;943;51.568;6.998;2023-07-08T05:52:36;7.30;;;3.30;;
1885;SDS011;943;51.568;6.998;2023-07-08T05:55:04;4.17;;;3.20;;
1885;SDS011;943;51.568;6.998;2023-07-08T05:57:33;5.20;;;2.97;;
1885;SDS011;943;51.568;6.998;2023-07-08T06:00:02;7.83;;;3.37;;
1885;SDS011;943;51.568;6.998;2023-07-08T06:02:37;6.53;;;3.47;;
1885;SDS011;943;51.568;6.998;2023-07-08T06:05:05;3.77;;;3.00;;
1885;SDS011;943;51.568;6.998;2023-07-08T06:07:35;5.00;;;3.90;;
1885;SDS011;943;51.568;6.998;2023-07-08T06:10:03;5.93;;;3.37;;
1885;SDS011;943;51.568;6.998;2023-07-08T06:12:32;9.47;;;4.43;;
1885;SDS011;943;51.568;6.998;2023-07-08T06:15:01;5.97;;;3.20;;
1885;SDS011;943;51.568;6.998;2023-07-08T06:17:29;4.57;;;3.20;;
1885;SDS011;943;51.568;6.998;2023-07-08T06:19:57;5.17;;;2.70;;
1885;SDS011;943;51.568;6.998;2023-07-08T06:22:25;5.87;;;3.40;;
1885;SDS011;943;51.568;6.998;2023-07-08T06:24:56;5.43;;;3.50;;
1885;SDS011;943;51.568;6.998;2023-07-08T06:27:24;5.00;;;3.43;;
1885;SDS011;943;51.568;6.998;2023-07-08T06:29:53;6.93;;;3.40;;
1885;SDS011;943;51.568;6.998;2023-07-08T06:32:21;4.67;;;3.53;;
1885;SDS011;943;51.568;6.998;2023-07-08T06:34:49;5.33;;;3.50;;
1885;SDS011;943;51.568;6.998;2023-07-08T06:37:17;3.60;;;3.10;;
1885;SDS011;943;51.568;6.998;2023-07-08T06:39:45;4.60;;;3.40;;
1885;SDS011;943;51.568;6.998;2023-07-08T06:42:13;5.40;;;3.97;;
1885;SDS011;943;51.568;6.998;2023-07-08T06:44:49;9.37;;;4.20;;
1885;SDS011;943;51.568;6.998;2023-07-08T06:47:19;4.43;;;3.00;;
1885;SDS011;943;51.568;6.998;2023-07-08T06:49:49;5.90;;;3.20;;
1885;SDS011;943;51.568;6.998;2023-07-08T06:52:16;9.50;;;3.47;;
1885;SDS011;943;51.568;6.998;2023-07-08T06:54:44;4.10;;;3.70;;
1885;SDS011;943;51.568;6.998;2023-07-08T06:57:12;4.67;;;3.23;;
1885;SDS011;943;51.568;6.998;2023-07-08T06:59:40;4.03;;;3.23;;
1885;SDS011;943;51.568;6.998;2023-07-08T07:02:08;7.10;;;3.33;;
1885;SDS011;943;51.568;6.998;2023-07-08T07:04:37;6.67;;;3.80;;
1885;SDS011;943;51.568;6.998;2023-07-08T07:07:11;5.33;;;3.73;;
1885;SDS011;943;51.568;6.998;2023-07-08T07:09:45;7.30;;;3.90;;
1885;SDS011;943;51.568;6.998;2023-07-08T07:12:18;7.33;;;4.00;;
1885;SDS011;943;51.568;6.998;2023-07-08T07:14:52;4.68;;;3.63;;
1885;SDS011;943;51.568;6.998;2023-07-08T07:17:33;4.15;;;3.42;;
1885;SDS011;943;51.568;6.998;2023-07-08T07:20:13;4.72;;;3.28;;
1885;SDS011;943;51.568;6.998;2023-07-08T07:22:54;5.68;;;3.65;;
1885;SDS011;943;51.568;6.998;2023-07-08T07:25:49;7.32;;;4.05;;
1885;SDS011;943;51.568;6.998;2023-07-08T07:28:36;5.53;;;3.67;;
1885;SDS011;943;51.568;6.998;2023-07-08T07:31:15;4.75;;;4.07;;
1885;SDS011;943;51.568;6.998;2023-07-08T07:34:02;4.85;;;3.83;;
1885;SDS011;943;51.568;6.998;2023-07-08T07:36:47;8.75;;;4.28;;
1885;SDS011;943;51.568;6.998;2023-07-08T07:39:27;4.63;;;3.55;;
1885;SDS011;943;51.568;6.998;2023-07-08T07:42:05;4.65;;;3.38;;
1885;SDS011;943;51.568;6.998;2023-07-08T07:44:46;5.18;;;3.75;;
1885;SDS011;943;51.568;6.998;2023-07-08T07:47:27;5.78;;;4.05;;
1885;SDS011;943;51.568;6.998;2023-07-08T07:50:04;4.72;;;3.85;;
1885;SDS011;943;51.568;6.998;2023-07-08T07:52:50;4.65;;;4.15;;
1885;SDS011;943;51.568;6.998;2023-07-08T07:55:23;5.05;;;3.55;;
1885;SDS011;943;51.568;6.998;2023-07-08T07:58:06;6.68;;;4.10;;
1885;SDS011;943;51.568;6.998;2023-07-08T08:00:48;6.93;;;4.47;;
1885;SDS011;943;51.568;6.998;2023-07-08T08:03:29;8.25;;;4.25;;
1885;SDS011;943;51.568;6.998;2023-07-08T08:06:03;4.63;;;4.05;;
1885;SDS011;943;51.568;6.998;2023-07-08T08:08:36;5.38;;;3.97;;
1885;SDS011;943;51.568;6.998;2023-07-08T08:11:12;6.18;;;4.55;;
1885;SDS011;943;51.568;6.998;2023-07-08T08:13:44;8.45;;;4.00;;
1885;SDS011;943;51.568;6.998;2023-07-08T08:16:19;4.68;;;4.03;;
1885;SDS011;943;51.568;6.998;2023-07-08T08:19:09;6.47;;;4.20;;
1885;SDS011;943;51.568;6.998;2023-07-08T08:21:42;8.70;;;4.30;;
1885;SDS011;943;51.568;6.998;2023-07-08T08:24:19;6.45;;;4.50;;
1885;SDS011;943;51.568;6.998;2023-07-08T08:26:54;6.45;;;4.05;;
1885;SDS011;943;51.568;6.998;2023-07-08T08:29:26;6.03;;;4.10;;
1885;SDS011;943;51.568;6.998;2023-07-08T08:31:57;8.40;;;4.70;;
1885;SDS011;943;51.568;6.998;2023-07-08T08:34:28;5.90;;;5.00;;
1885;SDS011;943;51.568;6.998;2023-07-08T08:37:00;6.30;;;4.43;;
1885;SDS011;943;51.568;6.998;2023-07-08T08:39:32;8.60;;;5.20;;
1885;SDS011;943;51.568;6.998;2023-07-08T08:42:03;5.32;;;4.18;;
1885;SDS011;943;51.568;6.998;2023-07-08T08:45:00;5.72;;;4.10;;
1885;SDS011;943;51.568;6.998;2023-07-08T08:53:31;5.70;;;4.70;;
1885;SDS011;943;51.568;6.998;2023-07-08T08:56:05;6.20;;;4.35;;
1885;SDS011;943;51.568;6.998;2023-07-08T08:59:00;5.55;;;4.60;;
1885;SDS011;943;51.568;6.998;2023-07-08T09:05:19;6.82;;;4.32;;
1885;SDS011;943;51.568;6.998;2023-07-08T09:10:44;6.50;;;4.57;;
1885;SDS011;943;51.568;6.998;2023-07-08T09:13:47;7.35;;;5.10;;
1885;SDS011;943;51.568;6.998;2023-07-08T09:19:30;5.07;;;4.57;;
1885;SDS011;943;51.568;6.998;2023-07-08T09:22:34;5.20;;;4.55;;
1885;SDS011;943;51.568;6.998;2023-07-08T09:25:54;16.67;;;6.05;;
1885;SDS011;943;51.568;6.998;2023-07-08T09:28:39;6.13;;;5.13;;
1885;SDS011;943;51.568;6.998;2023-07-08T09:31:21;6.38;;;4.85;;
1885;SDS011;943;51.568;6.998;2023-07-08T09:34:35;6.28;;;5.10;;
1885;SDS011;943;51.568;6.998;2023-07-08T09:37:24;6.57;;;4.53;;
1885;SDS011;943;51.568;6.998;2023-07-08T09:40:00;7.25;;;5.72;;
1885;SDS011;943;51.568;6.998;2023-07-08T09:43:02;7.15;;;4.75;;
1885;SDS011;943;51.568;6.998;2023-07-08T09:46:05;10.60;;;5.20;;
1885;SDS011;943;51.568;6.998;2023-07-08T09:48:41;9.52;;;4.97;;
1885;SDS011;943;51.568;6.998;2023-07-08T09:51:09;8.60;;;5.40;;
1885;SDS011;943;51.568;6.998;2023-07-08T09:53:38;6.13;;;5.40;;
1885;SDS011;943;51.568;6.998;2023-07-08T09:56:08;5.93;;;5.32;;
1885;SDS011;943;51.568;6.998;2023-07-08T09:58:50;7.25;;;5.22;;
1885;SDS011;943;51.568;6.998;2023-07-08T10:01:41;7.05;;;5.32;;
1885;SDS011;943;51.568;6.998;2023-07-08T10:04:33;7.43;;;5.47;;
1885;SDS011;943;51.568;6.998;2023-07-08T10:07:22;6.28;;;5.35;;
1885;SDS011;943;51.568;6.998;2023-07-08T10:10:18;7.10;;;5.75;;
1885;SDS011;943;51.568;6.998;2023-07-08T10:13:45;7.70;;;5.03;;
1885;SDS011;943;51.568;6.998;2023-07-08T10:16:49;6.57;;;5.28;;
1885;SDS011;943;51.568;6.998;2023-07-08T10:19:19;5.45;;;4.80;;
1885;SDS011;943;51.568;6.998;2023-07-08T10:21:51;8.53;;;6.40;;
1885;SDS011;943;51.568;6.998;2023-07-08T10:25:05;7.93;;;5.20;;
1885;SDS011;943;51.568;6.998;2023-07-08T10:31:46;6.47;;;5.57;;
1885;SDS011;943;51.568;6.998;2023-07-08T10:37:56;6.10;;;4.70;;
1885;SDS011;943;51.568;6.998;2023-07-08T10:41:17;6.57;;;4.77;;
1885;SDS011;943;51.568;6.998;2023-07-08T10:54:50;6.50;;;4.57;;
1885;SDS011;943;51.568;6.998;2023-07-08T10:58:47;7.00;;;4.67;;
1885;SDS011;943;51.568;6.998;2023-07-08T11:06:02;5.73;;;4.57;;
1885;SDS011;943;51.568;6.998;2023-07-08T11:09:01;5.93;;;4.57;;
1885;SDS011;943;51.568;6.998;2023-07-08T11:11:36;7.93;;;4.60;;
1885;SDS011;943;51.568;6.998;2023-07-08T11:15:07;6.40;;;4.57;;
1885;SDS011;943;51.568;6.998;2023-07-08T11:21:10;5.97;;;4.80;;
1885;SDS011;943;51.568;6.998;2023-07-08T11:27:40;5.33;;;4.40;;
1885;SDS011;943;51.568;6.998;2023-07-08T11:30:22;5.93;;;3.60;;
1885;SDS011;943;51.568;6.998;2023-07-08T11:33:06;6.87;;;4.53;;
1885;SDS011;943;51.568;6.998;2023-07-08T11:35:53;7.90;;;4.30;;
1885;SDS011;943;51.568;6.998;2023-07-08T11:41:35;15.33;;;8.33;;
1885;SDS011;943;51.568;6.998;2023-07-08T11:44:04;5.97;;;4.33;;
1885;SDS011;943;51.568;6.998;2023-07-08T11:46:53;6.20;;;4.20;;
1885;SDS011;943;51.568;6.998;2023-07-08T11:49:27;6.80;;;4.00;;
1885;SDS011;943;51.568;6.998;2023-07-08T11:52:02;5.43;;;3.60;;
1885;SDS011;943;51.568;6.998;2023-07-08T11:54:31;5.40;;;3.43;;
1885;SDS011;943;51.568;6.998;2023-07-08T11:57:04;7.13;;;4.00;;
1885;SDS011;943;51.568;6.998;2023-07-08T11:59:44;6.17;;;4.13;;
1885;SDS011;943;51.568;6.998;2023-07-08T12:02:16;6.07;;;3.67;;
1885;SDS011;943;51.568;6.998;2023-07-08T12:05:04;4.70;;;3.60;;
1885;SDS011;943;51.568;6.998;2023-07-08T12:07:42;7.87;;;4.00;;
1885;SDS011;943;51.568;6.998;2023-07-08T12:10:31;6.70;;;4.17;;
1885;SDS011;943;51.568;6.998;2023-07-08T12:13:13;4.93;;;4.00;;
1885;SDS011;943;51.568;6.998;2023-07-08T12:15:52;6.73;;;3.93;;
1885;SDS011;943;51.568;6.998;2023-07-08T12:18:25;8.80;;;4.60;;
1885;SDS011;943;51.568;6.998;2023-07-08T12:21:05;5.90;;;4.67;;
1885;SDS011;943;51.568;6.998;2023-07-08T12:23:35;5.40;;;3.83;;
1885;SDS011;943;51.568;6.998;2023-07-08T12:26:04;7.00;;;4.60;;
1885;SDS011;943;51.568;6.998;2023-07-08T12:28:36;6.90;;;3.80;;
1885;SDS011;943;51.568;6.998;2023-07-08T12:31:25;6.00;;;4.40;;
1885;SDS011;943;51.568;6.998;2023-07-08T12:33:54;4.30;;;3.73;;
1885;SDS011;943;51.568;6.998;2023-07-08T12:36:25;7.00;;;4.40;;
1885;SDS011;943;51.568;6.998;2023-07-08T12:38:58;5.90;;;3.70;;
1885;SDS011;943;51.568;6.998;2023-07-08T12:41:30;6.97;;;4.60;;
1885;SDS011;943;51.568;6.998;2023-07-08T12:44:08;5.57;;;4.00;;
1885;SDS011;943;51.568;6.998;2023-07-08T12:46:53;4.80;;;3.63;;
1885;SDS011;943;51.568;6.998;2023-07-08T12:49:22;5.10;;;3.43;;
1885;SDS011;943;51.568;6.998;2023-07-08T12:51:54;5.87;;;4.30;;
1885;SDS011;943;51.568;6.998;2023-07-08T12:54:22;4.87;;;3.80;;
1885;SDS011;943;51.568;6.998;2023-07-08T12:56:50;5.17;;;4.50;;
1885;SDS011;943;51.568;6.998;2023-07-08T12:59:21;6.43;;;4.60;;
1885;SDS011;943;51.568;6.998;2023-07-08T13:01:52;5.23;;;3.80;;
1885;SDS011;943;51.568;6.998;2023-07-08T13:04:21;6.50;;;4.20;;
1885;SDS011;943;51.568;6.998;2023-07-08T13:06:50;5.40;;;3.93;;
1885;SDS011;943;51.568;6.998;2023-07-08T13:12:13;5.80;;;3.87;;
1885;SDS011;943;51.568;6.998;2023-07-08T13:14:52;7.90;;;4.53;;
1885;SDS011;943;51.568;6.998;2023-07-08T13:17:26;6.00;;;3.67;;
1885;SDS011;943;51.568;6.998;2023-07-08T13:19:55;5.80;;;4.30;;
1885;SDS011;943;51.568;6.998;2023-07-08T13:22:24;5.50;;;3.67;;
1885;SDS011;943;51.568;6.998;2023-07-08T13:25:00;5.90;;;4.03;;
1885;SDS011;943;51.568;6.998;2023-07-08T13:27:37;5.57;;;4.00;;
1885;SDS011;943;51.568;6.998;2023-07-08T13:30:20;5.13;;;4.03;;
1885;SDS011;943;51.568;6.998;2023-07-08T13:32:55;9.03;;;4.87;;
1885;SDS011;943;51.568;6.998;2023-07-08T13:38:12;5.30;;;3.43;;
1885;SDS011;943;51.568;6.998;2023-07-08T13:41:00;6.03;;;3.60;;
1885;SDS011;943;51.568;6.998;2023-07-08T13:43:36;5.67;;;4.20;;
1885;SDS011;943;51.568;6.998;2023-07-08T13:46:28;7.45;;;3.97;;
1885;SDS011;943;51.568;6.998;2023-07-08T13:52:05;7.18;;;3.60;;
1885;SDS011;943;51.568;6.998;2023-07-08T13:54:59;5.50;;;4.15;;
1885;SDS011;943;51.568;6.998;2023-07-08T13:57:45;4.43;;;3.45;;
1885;SDS011;943;51.568;6.998;2023-07-08T14:00:22;5.90;;;3.65;;
1885;SDS011;943;51.568;6.998;2023-07-08T14:03:02;5.97;;;3.67;;
1885;SDS011;943;51.568;6.998;2023-07-08T14:05:36;5.70;;;4.43;;
1885;SDS011;943;51.568;6.998;2023-07-08T14:08:10;6.53;;;3.83;;
1885;SDS011;943;51.568;6.998;2023-07-08T14:10:44;5.63;;;3.90;;
1885;SDS011;943;51.568;6.998;2023-07-08T14:13:12;5.53;;;3.47;;
1885;SDS011;943;51.568;6.998;2023-07-08T14:15:42;6.55;;;4.22;;
1885;SDS011;943;51.568;6.998;2023-07-08T14:18:10;7.47;;;4.15;;
1885;SDS011;943;51.568;6.998;2023-07-08T14:20:40;7.20;;;4.40;;
1885;SDS011;943;51.568;6.998;2023-07-08T14:23:08;4.50;;;3.47;;
1885;SDS011;943;51.568;6.998;2023-07-08T14:25:37;5.78;;;3.42;;
1885;SDS011;943;51.568;6.998;2023-07-08T14:28:06;4.55;;;3.65;;
1885;SDS011;943;51.568;6.998;2023-07-08T14:30:34;5.78;;;3.75;;
1885;SDS011;943;51.568;6.998;2023-07-08T14:33:14;5.15;;;3.38;;
1885;SDS011;943;51.568;6.998;2023-07-08T14:35:42;4.73;;;3.40;;
1885;SDS011;943;51.568;6.998;2023-07-08T14:38:11;5.50;;;4.30;;
1885;SDS011;943;51.568;6.998;2023-07-08T14:40:40;4.90;;;3.67;;
1885;SDS011;943;51.568;6.998;2023-07-08T14:43:28;5.20;;;3.57;;
1885;SDS011;943;51.568;6.998;2023-07-08T14:46:02;6.00;;;3.70;;
1885;SDS011;943;51.568;6.998;2023-07-08T14:48:32;4.50;;;3.60;;
1885;SDS011;943;51.568;6.998;2023-07-08T14:51:00;5.20;;;3.40;;
1885;SDS011;943;51.568;6.998;2023-07-08T14:53:29;5.43;;;3.53;;
1885;SDS011;943;51.568;6.998;2023-07-08T14:55:57;5.80;;;3.70;;
1885;SDS011;943;51.568;6.998;2023-07-08T14:58:37;6.03;;;3.63;;
1885;SDS011;943;51.568;6.998;2023-07-08T15:01:18;5.95;;;3.45;;
1885;SDS011;943;51.568;6.998;2023-07-08T15:03:50;6.03;;;3.65;;
1885;SDS011;943;51.568;6.998;2023-07-08T15:06:18;6.38;;;4.18;;
1885;SDS011;943;51.568;6.998;2023-07-08T15:08:47;6.07;;;3.83;;
1885;SDS011;943;51.568;6.998;2023-07-08T15:11:15;5.40;;;3.42;;
1885;SDS011;943;51.568;6.998;2023-07-08T15:13:45;5.78;;;3.60;;
1885;SDS011;943;51.568;6.998;2023-07-08T15:16:14;6.80;;;3.80;;
1885;SDS011;943;51.568;6.998;2023-07-08T15:18:44;5.50;;;3.75;;
1885;SDS011;943;51.568;6.998;2023-07-08T15:21:13;5.65;;;4.03;;
1885;SDS011;943;51.568;6.998;2023-07-08T15:23:42;5.30;;;4.22;;
1885;SDS011;943;51.568;6.998;2023-07-08T15:26:11;5.53;;;4.30;;
1885;SDS011;943;51.568;6.998;2023-07-08T15:28:42;6.22;;;3.63;;
1885;SDS011;943;51.568;6.998;2023-07-08T15:31:20;4.88;;;4.22;;
1885;SDS011;943;51.568;6.998;2023-07-08T15:33:55;5.75;;;3.47;;
1885;SDS011;943;51.568;6.998;2023-07-08T15:36:23;6.13;;;3.83;;
1885;SDS011;943;51.568;6.998;2023-07-08T15:38:51;6.82;;;3.97;;
1885;SDS011;943;51.568;6.998;2023-07-08T15:43:55;5.10;;;3.75;;
1885;SDS011;943;51.568;6.998;2023-07-08T15:46:28;5.80;;;3.83;;
1885;SDS011;943;51.568;6.998;2023-07-08T15:49:18;6.78;;;4.13;;
1885;SDS011;943;51.568;6.998;2023-07-08T15:52:08;4.22;;;3.35;;
1885;SDS011;943;51.568;6.998;2023-07-08T15:54:37;6.88;;;4.13;;
1885;SDS011;943;51.568;6.998;2023-07-08T15:57:07;6.85;;;3.58;;
1885;SDS011;943;51.568;6.998;2023-07-08T15:59:41;4.30;;;3.80;;
1885;SDS011;943;51.568;6.998;2023-07-08T16:02:24;5.53;;;3.58;;
1885;SDS011;943;51.568;6.998;2023-07-08T16:04:57;7.43;;;3.90;;
1885;SDS011;943;51.568;6.998;2023-07-08T16:07:25;4.43;;;3.60;;
1885;SDS011;943;51.568;6.998;2023-07-08T16:09:53;9.53;;;3.90;;
1885;SDS011;943;51.568;6.998;2023-07-08T16:12:21;5.10;;;3.30;;
1885;SDS011;943;51.568;6.998;2023-07-08T16:14:49;5.70;;;4.07;;
1885;SDS011;943;51.568;6.998;2023-07-08T16:17:18;5.25;;;3.60;;
1885;SDS011;943;51.568;6.998;2023-07-08T16:19:46;5.57;;;3.87;;
1885;SDS011;943;51.568;6.998;2023-07-08T16:22:14;7.10;;;4.45;;
1885;SDS011;943;51.568;6.998;2023-07-08T16:24:42;6.53;;;3.50;;
1885;SDS011;943;51.568;6.998;2023-07-08T16:27:10;4.70;;;3.80;;
1885;SDS011;943;51.568;6.998;2023-07-08T16:29:40;7.22;;;4.20;;
1885;SDS011;943;51.568;6.998;2023-07-08T16:32:10;5.70;;;3.38;;
1885;SDS011;943;51.568;6.998;2023-07-08T16:34:41;5.00;;;3.85;;
1885;SDS011;943;51.568;6.998;2023-07-08T16:37:09;4.60;;;3.50;;
1885;SDS011;943;51.568;6.998;2023-07-08T16:39:37;6.70;;;3.80;;
1885;SDS011;943;51.568;6.998;2023-07-08T16:42:07;4.43;;;3.65;;
1885;SDS011;943;51.568;6.998;2023-07-08T16:44:42;4.60;;;3.78;;
1885;SDS011;943;51.568;6.998;2023-07-08T16:47:10;5.30;;;3.60;;
1885;SDS011;943;51.568;6.998;2023-07-08T16:49:38;7.53;;;3.45;;
1885;SDS011;943;51.568;6.998;2023-07-08T16:52:12;6.30;;;3.90;;
1885;SDS011;943;51.568;6.998;2023-07-08T16:54:43;5.75;;;5.15;;
1885;SDS011;943;51.568;6.998;2023-07-08T16:57:11;7.85;;;6.30;;
1885;SDS011;943;51.568;6.998;2023-07-08T16:59:38;8.40;;;7.50;;
1885;SDS011;943;51.568;6.998;2023-07-08T17:02:13;6.18;;;5.15;;
1885;SDS011;943;51.568;6.998;2023-07-08T17:04:43;10.75;;;8.95;;
1885;SDS011;943;51.568;6.998;2023-07-08T17:07:17;9.05;;;7.50;;
1885;SDS011;943;51.568;6.998;2023-07-08T17:09:45;7.72;;;6.38;;
1885;SDS011;943;51.568;6.998;2023-07-08T17:12:14;13.25;;;11.88;;
1885;SDS011;943;51.568;6.998;2023-07-08T17:14:42;11.57;;;9.57;;
1885;SDS011;943;51.568;6.998;2023-07-08T17:17:10;7.63;;;6.68;;